Time;durP1;ratioP1;P1;durP2;ratioP2;P2;SDS_P1;SDS_P2;PMS_P1;PMS_P2;Temp;Humidity;BMP_temperature;BMP_pressure;BME280_temperature;BME280_humidity;BME280_pressure;Samples;Min_cycle;Max_cycle;Signal;HPM_P1;HPM_P2
2021/10/19 00:00:44;;;;;;;15.80;12.30;;;;;;;;;;5016180;28;20463;-85
2021/10/19 00:03:11;;;;;;;16.30;11.90;;;;;;;;;;5034049;28;20444;-85
2021/10/19 00:05:44;;;;;;;14.70;11.20;;;7.10;99.90;;;;;;5044086;23;20440;-85
2021/10/19 00:08:12;;;;;;;16.40;11.40;;;7.00;99.90;;;;;;5073819;28;20439;-86
2021/10/19 00:10:40;;;;;;;17.10;10.83;;;;;;;;;;5152992;23;20487;-84
2021/10/19 00:13:07;;;;;;;16.40;11.13;;;;;;;;;;5054050;28;20436;-85
2021/10/19 00:15:35;;;;;;;16.87;11.70;;;;;;;;;;5051616;28;20475;-85
2021/10/19 00:18:02;;;;;;;12.97;10.77;;;;;;;;;;5055030;28;20451;-83
2021/10/19 00:20:29;;;;;;;13.47;10.50;;;;;;;;;;5054327;28;20440;-84
2021/10/19 00:22:56;;;;;;;15.67;11.30;;;7.00;99.90;;;;;;5054963;28;20466;-86
2021/10/19 00:25:28;;;;;;;14.57;10.60;;;;;;;;;;5104113;23;20478;-84
2021/10/19 00:27:55;;;;;;;13.43;10.00;;;;;;;;;;5056718;28;20435;-85
2021/10/19 00:30:22;;;;;;;12.13;9.67;;;;;;;;;;5057335;28;20491;-85
2021/10/19 00:32:50;;;;;;;16.40;9.57;;;;;;;;;;5058362;28;20439;-85
2021/10/19 00:35:17;;;;;;;11.87;8.10;;;;;;;;;;5055869;28;20458;-89
2021/10/19 00:37:44;;;;;;;9.93;8.00;;;8.10;99.90;;;;;;5066386;23;20497;-85
2021/10/19 00:40:12;;;;;;;9.50;8.13;;;8.20;99.90;;;;;;5075495;28;20450;-86
2021/10/19 00:42:41;;;;;;;8.50;7.10;;;8.40;99.90;;;;;;5072853;28;20450;-87
2021/10/19 00:45:10;;;;;;;10.37;7.43;;;8.50;99.90;;;;;;5068259;23;20478;-85
2021/10/19 00:47:46;;;;;;;12.77;8.20;;;;;;;;;;5057268;28;20415;-87
2021/10/19 00:50:13;;;;;;;9.47;7.77;;;;;;;;;;5057859;28;20546;-85
2021/10/19 00:52:40;;;;;;;8.80;6.70;;;;;;;;;;5057586;28;20432;-84
2021/10/19 00:55:12;;;;;;;8.43;6.77;;;;;;;;;;5069779;23;20465;-84
2021/10/19 00:57:41;;;;;;;10.20;6.90;;;;;;;;;;5073682;23;20477;-85
2021/10/19 01:00:10;;;;;;;8.80;6.70;;;8.80;99.90;;;;;;5076983;28;20430;-85
2021/10/19 01:02:42;;;;;;;8.47;6.67;;;;;;;;;;5078666;23;20483;-85
2021/10/19 01:05:10;;;;;;;6.53;5.80;;;;;;;;;;5055167;28;20467;-84
2021/10/19 01:07:37;;;;;;;7.30;6.13;;;;;;;;;;5054038;28;20443;-84
2021/10/19 01:10:06;;;;;;;6.57;5.50;;;9.60;99.90;;;;;;5052308;28;20420;-92
2021/10/19 01:12:34;;;;;;;7.67;5.07;;;9.90;99.90;;;;;;5053157;28;20440;-94
2021/10/19 01:15:07;;;;;;;7.27;5.60;;;10.10;99.90;;;;;;5051493;28;20509;-86
2021/10/19 01:17:35;;;;;;;5.27;4.27;;;;;;;;;;5045360;28;20501;-94
2021/10/19 01:20:03;;;;;;;6.80;5.00;;;10.30;99.90;;;;;;5042377;28;20463;-88
2021/10/19 01:22:30;;;;;;;4.20;3.80;;;;;;;;;;5048431;28;20450;-90
2021/10/19 01:24:57;;;;;;;6.50;4.97;;;;;;;;;;5045649;28;20451;-91
2021/10/19 01:27:24;;;;;;;6.27;4.13;;;;;;;;;;5053618;28;20439;-86
2021/10/19 01:29:51;;;;;;;11.13;5.30;;;;;;;;;;5055849;28;20472;-87
2021/10/19 01:32:19;;;;;;;5.90;4.90;;;10.20;99.90;;;;;;5047822;28;20495;-85
2021/10/19 01:34:46;;;;;;;5.70;5.00;;;;;;;;;;5093597;23;20432;-85
2021/10/19 01:37:22;;;;;;;5.87;4.67;;;10.10;99.90;;;;;;5063366;23;20486;-84
2021/10/19 01:39:49;;;;;;;7.10;5.03;;;;;;;;;;5074487;23;20495;-85
2021/10/19 01:42:19;;;;;;;6.50;5.43;;;8.50;99.90;;;;;;5084982;23;20490;-86
2021/10/19 01:44:46;;;;;;;7.33;6.27;;;;;;;;;;5080081;23;20487;-84
2021/10/19 01:47:14;;;;;;;9.17;6.97;;;9.40;99.90;;;;;;5077318;23;20491;-85
2021/10/19 01:49:41;;;;;;;8.53;7.40;;;;;;;;;;5055227;28;20422;-85
2021/10/19 01:52:08;;;;;;;9.00;7.70;;;;;;;;;;5055957;28;20467;-85
2021/10/19 01:54:37;;;;;;;9.30;7.97;;;;;;;;;;5075476;23;20505;-85
2021/10/19 01:57:07;;;;;;;8.53;7.37;;;8.70;99.90;;;;;;5076744;23;20491;-87
2021/10/19 01:59:34;;;;;;;8.77;7.60;;;;;;;;;;5064733;23;20490;-85
2021/10/19 02:02:04;;;;;;;11.10;8.43;;;;;;;;;;5055694;23;20503;-86
2021/10/19 02:04:31;;;;;;;11.80;8.47;;;;;;;;;;5035542;28;20520;-85
2021/10/19 02:06:58;;;;;;;10.10;8.17;;;;;;;;;;5035409;28;20428;-86
2021/10/19 02:09:29;;;;;;;8.87;7.97;;;;;;;;;;5070416;23;20489;-87
2021/10/19 02:11:57;;;;;;;8.00;7.00;;;;;;;;;;5073928;28;20490;-85
2021/10/19 02:14:25;;;;;;;9.33;6.20;;;;;;;;;;5074116;28;20874;-85
2021/10/19 02:16:52;;;;;;;6.47;5.53;;;;;;;;;;5073877;28;20441;-85
2021/10/19 02:19:22;;;;;;;5.93;4.07;;;;;;;;;;5069157;28;20446;-91
2021/10/19 02:21:49;;;;;;;5.43;4.87;;;;;;;;;;5066042;28;20527;-88
2021/10/19 02:24:16;;;;;;;5.53;4.20;;;;;;;;;;5069051;28;20809;-86
2021/10/19 02:26:43;;;;;;;6.43;3.93;;;;;;;;;;5069193;28;20447;-86
2021/10/19 02:29:12;;;;;;;4.83;3.80;;;10.70;99.90;;;;;;5065163;28;20451;-93
2021/10/19 02:31:39;;;;;;;5.43;4.40;;;;;;;;;;5066981;28;20486;-88
2021/10/19 02:34:06;;;;;;;5.70;4.27;;;;;;;;;;5067952;28;20447;-85
2021/10/19 02:36:33;;;;;;;6.17;5.10;;;;;;;;;;5067911;28;20443;-86
2021/10/19 02:39:01;;;;;;;6.87;4.53;;;;;;;;;;5072196;28;20454;-91
2021/10/19 02:41:28;;;;;;;5.80;4.23;;;;;;;;;;5071914;28;20469;-87
2021/10/19 02:43:57;;;;;;;5.43;4.20;;;;;;;;;;5065980;23;20487;-87
2021/10/19 02:46:26;;;;;;;4.63;3.93;;;;;;;;;;5053653;28;20448;-90
2021/10/19 02:48:53;;;;;;;6.23;4.50;;;;;;;;;;5048697;28;20461;-89
2021/10/19 02:51:23;;;;;;;5.63;4.57;;;10.90;99.90;;;;;;5057781;23;20505;-84
2021/10/19 02:53:50;;;;;;;7.10;4.97;;;;;;;;;;5065269;28;20446;-84
2021/10/19 02:56:17;;;;;;;6.23;4.87;;;;;;;;;;5065132;28;20465;-89
2021/10/19 02:58:45;;;;;;;3.33;2.37;;;;;;;;;;5068350;28;20453;-87
2021/10/19 03:01:12;;;;;;;4.97;4.00;;;;;;;;;;5071509;28;20439;-93
2021/10/19 03:03:40;;;;;;;4.60;3.50;;;10.90;99.90;;;;;;5062315;28;20465;-93
2021/10/19 03:06:07;;;;;;;5.27;4.63;;;;;;;;;;5059674;28;20443;-92
2021/10/19 03:08:34;;;;;;;4.97;4.07;;;;;;;;;;5061198;28;20430;-90
2021/10/19 03:11:03;;;;;;;4.70;4.03;;;11.00;99.90;;;;;;5066266;28;20490;-89
2021/10/19 03:13:30;;;;;;;3.17;2.90;;;;;;;;;;5073820;28;20438;-88
2021/10/19 03:15:57;;;;;;;5.87;4.10;;;;;;;;;;5068311;28;20472;-86
2021/10/19 03:18:25;;;;;;;6.57;4.33;;;;;;;;;;5063360;28;20461;-90
2021/10/19 03:20:54;;;;;;;6.30;4.23;;;11.10;99.90;;;;;;5059367;28;20526;-93
2021/10/19 03:23:23;;;;;;;4.63;4.13;;;;;;;;;;5062695;28;20434;-91
2021/10/19 03:25:51;;;;;;;5.80;4.67;;;11.30;99.90;;;;;;5067621;28;20505;-91
2021/10/19 03:28:18;;;;;;;5.90;4.23;;;;;;;;;;5064969;28;20442;-90
2021/10/19 03:30:45;;;;;;;5.20;3.40;;;;;;;;;;5060432;28;20467;-91
2021/10/19 03:33:12;;;;;;;5.40;3.77;;;;;;;;;;5061433;28;20446;-92
2021/10/19 03:35:39;;;;;;;7.23;5.67;;;;;;;;;;5065307;28;20439;-92
2021/10/19 03:38:08;;;;;;;6.50;4.50;;;11.40;99.90;;;;;;5062317;28;20453;-86
2021/10/19 03:40:35;;;;;;;5.33;4.83;;;;;;;;;;5064587;28;20443;-92
2021/10/19 03:43:02;;;;;;;5.20;4.60;;;;;;;;;;5070442;28;20430;-90
2021/10/19 03:45:29;;;;;;;6.20;3.47;;;;;;;;;;5068646;28;20445;-92
2021/10/19 03:47:56;;;;;;;4.03;3.70;;;;;;;;;;5066383;28;20442;-95
2021/10/19 03:50:23;;;;;;;5.20;3.73;;;;;;;;;;5094697;23;20484;-94
2021/10/19 03:52:50;;;;;;;5.83;3.43;;;;;;;;;;5077589;23;20498;-92
2021/10/19 03:55:19;;;;;;;7.53;5.60;;;11.60;99.90;;;;;;5058011;28;20446;-93
2021/10/19 03:57:46;;;;;;;4.37;3.60;;;;;;;;;;5055101;28;20441;-91
2021/10/19 04:00:13;;;;;;;8.23;5.17;;;11.60;99.90;;;;;;5058862;28;20871;-93
2021/10/19 04:02:40;;;;;;;6.40;5.40;;;;;;;;;;5067466;28;20457;-94
2021/10/19 04:05:08;;;;;;;12.40;5.53;;;11.60;99.90;;;;;;5072088;28;20450;-92
2021/10/19 04:07:35;;;;;;;7.70;5.80;;;;;;;;;;5063385;28;20465;-92
2021/10/19 04:10:03;;;;;;;5.73;5.13;;;;;;;;;;5062163;28;20458;-94
2021/10/19 04:12:31;;;;;;;3.30;2.90;;;11.70;99.90;;;;;;5064144;28;20489;-92
2021/10/19 04:14:58;;;;;;;7.00;5.70;;;;;;;;;;5065656;28;20450;-90
2021/10/19 04:17:25;;;;;;;5.77;4.97;;;;;;;;;;5060371;28;20773;-93
2021/10/19 04:19:53;;;;;;;6.80;5.90;;;;;;;;;;5062496;28;20449;-93
2021/10/19 04:22:22;;;;;;;7.10;5.83;;;;;;;;;;5066851;28;20462;-89
2021/10/19 04:24:49;;;;;;;9.13;5.97;;;;;;;;;;5059211;28;20454;-96
2021/10/19 04:27:17;;;;;;;7.50;5.83;;;;;;;;;;5058637;28;20438;-91
2021/10/19 04:29:45;;;;;;;6.00;5.07;;;11.70;99.90;;;;;;5065405;28;20458;-89
2021/10/19 04:32:12;;;;;;;6.83;5.33;;;;;;;;;;5065577;28;20494;-90
2021/10/19 04:34:39;;;;;;;5.43;4.80;;;;;;;;;;5062170;28;20449;-91
2021/10/19 04:37:06;;;;;;;5.60;5.00;;;;;;;;;;5061988;28;20974;-86
2021/10/19 04:39:35;;;;;;;6.83;5.10;;;;;;;;;;5070288;28;20442;-88
2021/10/19 04:42:02;;;;;;;5.93;5.33;;;;;;;;;;5072548;28;20844;-93
2021/10/19 04:44:30;;;;;;;6.47;5.17;;;;;;;;;;5060039;28;20446;-93
2021/10/19 04:47:00;;;;;;;3.87;2.73;;;11.90;99.90;;;;;;5062313;28;20454;-90
2021/10/19 04:49:27;;;;;;;8.03;6.47;;;;;;;;;;5060613;28;20442;-94
2021/10/19 04:51:54;;;;;;;6.00;4.87;;;;;;;;;;5060640;28;20486;-87
2021/10/19 04:54:21;;;;;;;10.60;5.80;;;;;;;;;;5058817;28;20442;-93
2021/10/19 04:56:48;;;;;;;6.80;5.53;;;;;;;;;;5064854;28;20446;-89
2021/10/19 04:59:15;;;;;;;9.17;6.20;;;;;;;;;;5067128;28;20450;-89
2021/10/19 05:01:43;;;;;;;27.47;19.47;;;;;;;;;;5068861;28;20435;-90
2021/10/19 05:04:15;;;;;;;8.83;6.17;;;11.90;99.90;;;;;;5065823;28;20453;-93
2021/10/19 05:06:42;;;;;;;7.47;6.40;;;;;;;;;;5068218;28;20470;-88
2021/10/19 05:09:09;;;;;;;6.37;5.57;;;;;;;;;;5062450;28;20443;-87
2021/10/19 05:11:36;;;;;;;7.70;6.30;;;;;;;;;;5074548;28;20490;-86
2021/10/19 05:14:03;;;;;;;7.47;5.90;;;;;;;;;;5067654;28;20447;-90
2021/10/19 05:16:31;;;;;;;5.13;4.50;;;;;;;;;;5064441;28;20450;-94
2021/10/19 05:18:58;;;;;;;7.27;5.70;;;;;;;;;;5061573;28;20455;-92
2021/10/19 05:21:26;;;;;;;8.23;5.70;;;11.90;99.90;;;;;;5064527;28;20447;-92
2021/10/19 05:23:53;;;;;;;9.13;7.77;;;;;;;;;;5062805;28;20442;-91
2021/10/19 05:26:20;;;;;;;7.50;6.50;;;;;;;;;;5062159;28;20469;-92
2021/10/19 05:28:47;;;;;;;8.73;7.00;;;;;;;;;;5062563;28;20484;-90
2021/10/19 05:31:14;;;;;;;5.50;5.00;;;;;;;;;;5029032;28;20450;-89
2021/10/19 05:33:41;;;;;;;8.43;7.50;;;;;;;;;;5059932;28;20442;-92
2021/10/19 05:36:09;;;;;;;9.73;6.93;;;;;;;;;;5060047;28;20821;-89
2021/10/19 05:38:37;;;;;;;10.70;8.70;;;11.30;99.90;;;;;;5058936;28;20442;-90
2021/10/19 05:41:05;;;;;;;18.40;8.33;;;11.20;99.90;;;;;;5053836;28;20571;-93
2021/10/19 05:43:32;;;;;;;7.47;6.70;;;;;;;;;;5059901;28;20447;-89
2021/10/19 05:45:59;;;;;;;9.90;6.83;;;;;;;;;;5062436;28;20434;-95
2021/10/19 05:48:26;;;;;;;10.10;7.90;;;;;;;;;;5059293;28;20466;-95
2021/10/19 05:50:54;;;;;;;8.60;7.03;;;;;;;;;;5068677;28;20449;-85
2021/10/19 05:53:21;;;;;;;11.33;8.00;;;;;;;;;;5068900;28;20466;-86
2021/10/19 05:55:59;;;;;;;10.70;7.00;;;;;;;;;;5076242;23;20514;-87
2021/10/19 05:58:26;;;;;;;8.03;7.03;;;;;;;;;;5072294;28;20454;-86
2021/10/19 06:00:53;;;;;;;8.60;7.40;;;;;;;;;;5074897;28;20439;-86
2021/10/19 06:03:20;;;;;;;8.57;7.33;;;11.00;99.90;;;;;;5077691;23;20984;-88
2021/10/19 06:05:48;;;;;;;7.47;6.63;;;;;;;;;;5074129;28;20408;-85
2021/10/19 06:08:15;;;;;;;8.57;7.67;;;;;;;;;;5073619;28;20435;-88
2021/10/19 06:10:42;;;;;;;8.70;7.40;;;;;;;;;;5069665;28;20458;-84
2021/10/19 06:13:10;;;;;;;9.73;8.33;;;10.90;99.90;;;;;;5068791;28;20479;-84
2021/10/19 06:15:40;;;;;;;8.20;6.90;;;;;;;;;;5065130;28;20431;-84
2021/10/19 06:18:07;;;;;;;9.10;7.43;;;;;;;;;;5066527;28;20446;-85
2021/10/19 06:20:34;;;;;;;7.77;6.40;;;;;;;;;;5071065;28;20443;-90
2021/10/19 06:23:02;;;;;;;8.83;6.90;;;;;;;;;;5054550;28;20478;-85
2021/10/19 06:25:29;;;;;;;7.33;6.20;;;;;;;;;;5065667;28;20467;-86
2021/10/19 06:27:56;;;;;;;7.40;5.33;;;;;;;;;;5068491;28;20481;-86
2021/10/19 06:30:24;;;;;;;17.83;11.97;;;11.20;99.90;;;;;;5068648;28;20447;-84
2021/10/19 06:32:52;;;;;;;13.13;8.23;;;;;;;;;;5073015;23;20517;-86
2021/10/19 06:35:19;;;;;;;8.67;6.30;;;;;;;;;;5071355;28;20458;-85
2021/10/19 06:37:46;;;;;;;6.27;5.67;;;;;;;;;;5016865;28;20442;-85
2021/10/19 06:40:13;;;;;;;7.47;4.27;;;;;;;;;;5066462;28;20458;-90
2021/10/19 06:42:42;;;;;;;4.77;4.07;;;;;;;;;;5069340;28;20450;-92
2021/10/19 06:45:10;;;;;;;7.03;5.70;;;11.40;99.90;;;;;;5065160;28;20494;-90
2021/10/19 06:47:38;;;;;;;7.07;4.80;;;11.40;99.90;;;;;;5057320;23;20557;-85
2021/10/19 06:50:10;;;;;;;5.83;4.90;;;11.20;99.90;;;;;;5050200;28;20455;-87
2021/10/19 06:52:37;;;;;;;5.80;4.90;;;;;;;;;;5039679;28;20547;-92
2021/10/19 06:55:05;;;;;;;5.97;4.20;;;;;;;;;;5038605;28;20451;-86
2021/10/19 06:57:32;;;;;;;6.40;5.47;;;;;;;;;;5041323;28;20456;-85
2021/10/19 07:00:03;;;;;;;5.07;4.57;;;;;;;;;;5010761;28;20474;-92
2021/10/19 07:02:30;;;;;;;6.10;4.23;;;;;;;;;;5062652;23;20486;-95
2021/10/19 07:04:59;;;;;;;5.90;4.50;;;11.60;99.90;;;;;;5061890;28;20799;-92
2021/10/19 07:07:26;;;;;;;6.20;5.20;;;;;;;;;;5069465;28;20944;-89
2021/10/19 07:09:53;;;;;;;4.87;3.77;;;;;;;;;;5062923;23;20491;-87
2021/10/19 07:12:20;;;;;;;3.30;2.97;;;;;;;;;;5050525;28;20509;-92
2021/10/19 07:14:48;;;;;;;3.00;2.70;;;;;;;;;;5048986;28;20451;-89
2021/10/19 07:17:15;;;;;;;4.40;3.80;;;;;;;;;;5045145;28;20466;-93
2021/10/19 07:19:43;;;;;;;5.63;5.17;;;;;;;;;;5039792;28;20443;-93
2021/10/19 07:22:11;;;;;;;6.20;3.67;;;;;;;;;;5032370;28;20452;-93
2021/10/19 07:24:38;;;;;;;4.13;3.73;;;;;;;;;;5023823;28;20460;-92
2021/10/19 07:27:07;;;;;;;22.00;14.03;;;;;;;;;;5014798;28;20456;-89
2021/10/19 07:29:34;;;;;;;4.33;3.47;;;;;;;;;;5018722;28;20539;-95
2021/10/19 07:32:01;;;;;;;4.93;4.20;;;;;;;;;;5024839;28;20436;-94
2021/10/19 07:34:28;;;;;;;5.70;3.87;;;;;;;;;;5039914;28;20853;-88
2021/10/19 07:36:56;;;;;;;3.97;3.43;;;;;;;;;;5042178;28;20440;-93
2021/10/19 07:39:24;;;;;;;4.23;3.40;;;12.60;99.90;;;;;;5034344;28;20452;-91
2021/10/19 07:41:51;;;;;;;5.10;3.53;;;;;;;;;;5028438;28;20451;-94
2021/10/19 07:44:18;;;;;;;4.43;2.97;;;;;;;;;;5031482;28;20538;-89
2021/10/19 07:46:46;;;;;;;4.47;3.77;;;;;;;;;;5033337;28;20799;-88
2021/10/19 07:49:14;;;;;;;3.00;2.70;;;;;;;;;;5030444;28;20943;-91
2021/10/19 07:51:41;;;;;;;3.70;3.20;;;;;;;;;;5033165;28;20474;-90
2021/10/19 07:54:08;;;;;;;3.13;2.83;;;;;;;;;;5032430;28;20486;-91
2021/10/19 07:56:36;;;;;;;4.37;3.30;;;12.70;99.90;;;;;;5033295;28;20452;-90
2021/10/19 07:59:05;;;;;;;3.27;2.60;;;;;;;;;;5033279;28;20459;-91
2021/10/19 08:01:33;;;;;;;3.63;3.30;;;;;;;;;;5033844;28;20458;-92
2021/10/19 08:04:00;;;;;;;4.30;3.90;;;;;;;;;;5033159;28;20466;-87
2021/10/19 08:06:27;;;;;;;4.10;3.63;;;;;;;;;;5033375;28;20439;-92
2021/10/19 08:08:54;;;;;;;5.57;4.10;;;;;;;;;;5032725;28;20497;-90
2021/10/19 08:11:22;;;;;;;5.90;3.30;;;;;;;;;;5033454;28;20450;-93
2021/10/19 08:13:53;;;;;;;3.90;3.40;;;13.00;99.90;;;;;;5032798;28;20495;-91
2021/10/19 08:16:20;;;;;;;4.27;3.87;;;;;;;;;;5029537;28;20570;-91
2021/10/19 08:18:48;;;;;;;3.40;3.00;;;;;;;;;;5033378;28;20454;-92
2021/10/19 08:21:15;;;;;;;3.57;3.23;;;;;;;;;;5030506;28;20817;-91
2021/10/19 08:23:42;;;;;;;3.53;2.60;;;;;;;;;;5032262;28;20474;-93
2021/10/19 08:26:09;;;;;;;4.13;3.47;;;;;;;;;;5034004;28;20447;-94
2021/10/19 08:28:39;;;;;;;3.40;2.40;;;;;;;;;;5033495;28;20505;-92
2021/10/19 08:31:10;;;;;;;3.50;2.63;;;;;;;;;;5030836;28;20444;-93
2021/10/19 08:33:37;;;;;;;3.30;3.00;;;;;;;;;;5030998;28;20526;-89
2021/10/19 08:36:04;;;;;;;3.43;3.10;;;;;;;;;;5032685;28;20935;-90
2021/10/19 08:38:31;;;;;;;3.20;2.90;;;;;;;;;;5031147;28;20447;-88
2021/10/19 08:40:59;;;;;;;4.00;2.77;;;;;;;;;;5032376;28;20451;-90
2021/10/19 08:43:26;;;;;;;4.47;2.80;;;;;;;;;;5029103;28;20840;-92
2021/10/19 08:45:54;;;;;;;3.90;3.10;;;;;;;;;;5036726;28;20443;-93
2021/10/19 08:48:22;;;;;;;5.53;3.20;;;12.60;99.90;;;;;;5036077;28;20460;-89
2021/10/19 08:50:49;;;;;;;4.63;3.10;;;;;;;;;;5020435;28;20459;-88
2021/10/19 08:53:16;;;;;;;4.20;3.50;;;;;;;;;;5015484;28;20499;-91
2021/10/19 08:55:43;;;;;;;10.20;3.90;;;;;;;;;;5013675;28;20459;-87
2021/10/19 08:58:13;;;;;;;4.20;3.70;;;12.10;99.90;;;;;;5016910;28;20916;-88
2021/10/19 09:00:41;;;;;;;5.13;3.60;;;;;;;;;;5017889;28;20460;-87
2021/10/19 09:03:09;;;;;;;3.90;3.50;;;;;;;;;;5023191;28;20464;-87
2021/10/19 09:05:37;;;;;;;5.60;3.30;;;12.40;99.90;;;;;;5017771;28;20464;-88
2021/10/19 09:08:07;;;;;;;4.27;3.00;;;12.40;99.90;;;;;;5014974;28;20494;-88
2021/10/19 09:10:35;;;;;;;5.20;3.27;;;12.40;99.90;;;;;;5016019;28;20468;-89
2021/10/19 09:13:04;;;;;;;3.53;3.23;;;12.40;99.90;;;;;;5019586;28;20480;-92
2021/10/19 09:15:32;;;;;;;3.77;3.47;;;12.50;99.90;;;;;;5023925;28;20539;-93
2021/10/19 09:18:04;;;;;;;4.40;3.70;;;12.50;99.90;;;;;;5017695;28;20453;-92
2021/10/19 09:20:37;;;;;;;4.30;3.47;;;12.50;99.90;;;;;;5016794;28;20455;-93
2021/10/19 09:23:05;;;;;;;5.50;3.90;;;12.50;99.90;;;;;;5014159;28;20459;-95
2021/10/19 09:25:34;;;;;;;7.07;4.20;;;12.50;99.90;;;;;;5015491;28;20448;-88
2021/10/19 09:28:02;;;;;;;4.77;3.93;;;;;;;;;;5015760;28;20445;-89
2021/10/19 09:30:36;;;;;;;5.10;4.60;;;12.50;99.90;;;;;;5014350;28;20444;-92
2021/10/19 09:33:06;;;;;;;3.80;3.40;;;;;;;;;;5017773;28;20567;-90
2021/10/19 09:35:33;;;;;;;6.13;4.87;;;;;;;;;;5031297;28;20436;-87
2021/10/19 09:38:04;;;;;;;8.47;4.80;;;12.70;99.90;;;;;;5022835;28;20455;-92
2021/10/19 09:40:36;;;;;;;7.47;3.83;;;12.90;99.90;;;;;;5013498;28;20476;-95
2021/10/19 09:43:06;;;;;;;4.97;4.40;;;12.80;99.90;;;;;;5011716;28;20474;-92
2021/10/19 09:45:33;;;;;;;3.87;3.47;;;13.20;99.90;;;;;;5016238;28;20440;-92
2021/10/19 09:48:00;;;;;;;4.30;3.90;;;;;;;;;;5012413;28;20441;-94
2021/10/19 09:50:29;;;;;;;4.13;2.70;;;12.70;99.90;;;;;;5011056;28;20792;-89
2021/10/19 09:52:57;;;;;;;5.23;3.60;;;;;;;;;;5015180;28;20472;-94
2021/10/19 09:55:26;;;;;;;4.43;3.87;;;13.00;99.90;;;;;;5019515;28;20478;-96
2021/10/19 09:57:53;;;;;;;3.93;3.53;;;;;;;;;;5013223;28;20453;-90
2021/10/19 10:00:23;;;;;;;3.47;3.00;;;13.10;99.90;;;;;;5015836;28;20459;-89
2021/10/19 10:02:50;;;;;;;3.47;3.17;;;;;;;;;;5016038;28;20461;-91
2021/10/19 10:05:18;;;;;;;2.83;2.50;;;;;;;;;;5016137;28;20443;-91
2021/10/19 10:07:48;;;;;;;4.37;3.50;;;13.20;99.90;;;;;;5017111;28;20806;-93
2021/10/19 10:10:16;;;;;;;6.03;5.53;;;13.10;99.90;;;;;;5015577;28;20955;-91
2021/10/19 10:12:50;;;;;;;3.10;2.80;;;;;;;;;;5013690;28;20449;-90
2021/10/19 10:15:26;;;;;;;2.30;2.00;;;13.20;99.90;;;;;;5021833;28;20449;-96
2021/10/19 10:18:01;;;;;;;3.47;2.50;;;13.20;99.90;;;;;;5035306;28;20456;-89
2021/10/19 10:20:33;;;;;;;5.40;3.23;;;13.40;99.90;;;;;;5022775;28;20857;-92
2021/10/19 10:23:15;;;;;;;5.37;2.67;;;13.00;99.90;;;;;;5013133;28;20469;-88
2021/10/19 10:25:42;;;;;;;3.70;2.70;;;;;;;;;;5027828;28;20456;-89
2021/10/19 10:28:16;;;;;;;5.23;4.50;;;13.10;99.90;;;;;;5020540;28;20448;-89
2021/10/19 10:30:44;;;;;;;6.00;3.27;;;;;;;;;;5030237;28;20448;-90
2021/10/19 10:33:11;;;;;;;3.47;3.00;;;;;;;;;;5021414;28;20487;-92
2021/10/19 10:35:44;;;;;;;3.30;3.00;;;13.10;99.90;;;;;;5019063;28;20448;-95
2021/10/19 10:38:11;;;;;;;4.90;2.93;;;;;;;;;;5017139;28;20502;-92
2021/10/19 10:40:40;;;;;;;4.83;3.30;;;13.00;99.90;;;;;;5016436;28;20951;-96
2021/10/19 10:43:27;;;;;;;3.30;2.87;;;12.90;99.90;;;;;;5016097;28;20452;-91
2021/10/19 10:46:05;;;;;;;3.20;2.90;;;12.90;99.90;;;;;;5021964;28;20440;-89
2021/10/19 10:48:32;;;;;;;6.13;2.60;;;;;;;;;;5023177;28;20448;-92
2021/10/19 10:50:59;;;;;;;3.43;2.67;;;;;;;;;;5042127;28;20957;-92
2021/10/19 10:53:34;;;;;;;3.50;2.33;;;13.00;99.90;;;;;;5035591;28;20498;-94
2021/10/19 10:56:01;;;;;;;4.40;2.80;;;;;;;;;;5037266;28;20450;-89
2021/10/19 10:58:34;;;;;;;3.00;2.57;;;12.90;99.90;;;;;;5029672;28;20448;-93
2021/10/19 11:01:12;;;;;;;2.63;2.43;;;13.00;99.90;;;;;;5014549;28;20483;-88
2021/10/19 11:03:39;;;;;;;3.50;2.60;;;;;;;;;;5015760;28;20495;-86
2021/10/19 11:06:07;;;;;;;3.20;2.30;;;;;;;;;;5014558;28;20444;-87
2021/10/19 11:08:36;;;;;;;3.70;2.80;;;13.30;99.90;;;;;;5018679;28;20476;-87
2021/10/19 11:11:05;;;;;;;3.50;2.73;;;13.50;99.90;;;;;;5017268;28;20455;-89
2021/10/19 11:13:49;;;;;;;2.67;2.40;;;13.60;99.90;;;;;;4965645;28;20480;-87
2021/10/19 11:16:18;;;;;;;2.90;2.60;;;;;;;;;;5024472;28;20473;-89
2021/10/19 11:18:45;;;;;;;4.10;2.47;;;;;;;;;;5020989;28;20455;-90
2021/10/19 11:21:12;;;;;;;2.87;2.60;;;;;;;;;;5018674;28;20448;-91
2021/10/19 11:23:40;;;;;;;2.30;1.90;;;13.90;99.90;;;;;;5021125;28;20601;-88
2021/10/19 11:26:09;;;;;;;3.03;2.70;;;13.90;99.90;;;;;;5017812;28;20451;-93
2021/10/19 11:28:40;;;;;;;3.00;2.70;;;13.90;99.90;;;;;;5012628;28;20819;-91
2021/10/19 11:31:08;;;;;;;3.23;2.50;;;;;;;;;;5013811;28;20535;-90
2021/10/19 11:33:39;;;;;;;3.77;2.80;;;14.00;99.90;;;;;;5014102;28;20818;-89
2021/10/19 11:36:06;;;;;;;2.37;2.17;;;;;;;;;;5013639;28;20822;-89
2021/10/19 11:38:33;;;;;;;3.03;2.73;;;;;;;;;;5014264;28;20468;-90
2021/10/19 11:41:08;;;;;;;5.90;2.80;;;14.50;99.90;;;;;;5013449;28;20452;-89
2021/10/19 11:43:36;;;;;;;4.87;2.57;;;;;;;;;;5013778;28;20447;-94
2021/10/19 11:46:09;;;;;;;3.90;2.47;;;14.30;99.90;;;;;;5013884;28;20486;-92
2021/10/19 11:48:39;;;;;;;3.03;2.57;;;14.40;99.90;;;;;;5017045;28;20448;-91
2021/10/19 11:51:11;;;;;;;2.60;2.40;;;;;;;;;;5017501;28;20935;-90
2021/10/19 11:53:39;;;;;;;3.80;2.50;;;14.30;99.90;;;;;;5014792;28;20482;-94
2021/10/19 11:56:06;;;;;;;2.90;2.57;;;;;;;;;;5016819;28;20449;-90
2021/10/19 11:58:34;;;;;;;3.37;2.40;;;;;;;;;;5022451;28;20456;-91
2021/10/19 12:01:01;;;;;;;2.70;2.47;;;;;;;;;;5017110;28;20445;-89
2021/10/19 12:03:33;;;;;;;4.63;2.83;;;14.10;99.90;;;;;;5015187;28;20452;-92
2021/10/19 12:06:01;;;;;;;3.20;2.00;;;;;;;;;;5028289;28;20482;-89
2021/10/19 12:08:32;;;;;;;2.90;2.30;;;14.20;99.90;;;;;;5038347;28;20557;-88
2021/10/19 12:11:10;;;;;;;2.97;2.43;;;14.00;99.90;;;;;;5038433;28;20493;-91
2021/10/19 12:13:37;;;;;;;6.00;3.30;;;14.00;99.90;;;;;;5039833;28;20428;-93
2021/10/19 12:16:05;;;;;;;4.43;2.90;;;14.20;99.90;;;;;;5034193;28;20443;-89
2021/10/19 12:18:43;;;;;;;4.70;2.50;;;13.90;99.90;;;;;;5029110;28;20451;-90
2021/10/19 12:21:10;;;;;;;3.17;2.60;;;;;;;;;;5037376;28;20448;-90
2021/10/19 12:23:49;;;;;;;3.00;2.70;;;15.60;99.90;;;;;;5036010;28;20791;-89
2021/10/19 12:26:19;;;;;;;3.00;2.63;;;13.60;99.90;;;;;;5037648;28;20459;-90
2021/10/19 12:28:50;;;;;;;4.13;3.37;;;13.60;99.90;;;;;;5037008;28;20440;-91
2021/10/19 12:31:17;;;;;;;11.20;2.90;;;13.60;99.90;;;;;;5036739;28;20492;-94
2021/10/19 12:33:53;;;;;;;3.73;3.30;;;13.60;99.90;;;;;;5036783;28;20444;-90
2021/10/19 12:36:22;;;;;;;3.93;2.83;;;;;;;;;;5036670;28;20455;-93
2021/10/19 12:38:50;;;;;;;3.20;2.50;;;;;;;;;;5037367;28;20482;-92
2021/10/19 12:41:19;;;;;;;4.53;3.03;;;13.60;99.90;;;;;;5037133;28;20460;-92
2021/10/19 12:43:48;;;;;;;2.90;2.60;;;13.70;99.90;;;;;;5038380;28;20451;-92
2021/10/19 12:46:17;;;;;;;3.80;2.60;;;13.70;99.90;;;;;;5036810;28;20470;-95
2021/10/19 12:48:45;;;;;;;5.67;3.07;;;13.80;99.90;;;;;;5037135;28;20444;-94
2021/10/19 12:51:14;;;;;;;5.47;3.87;;;13.80;99.90;;;;;;5037397;28;20451;-94
2021/10/19 12:53:41;;;;;;;4.20;3.73;;;;;;;;;;5036079;28;20435;-92
2021/10/19 12:56:08;;;;;;;3.63;3.17;;;;;;;;;;5037110;28;20946;-91
2021/10/19 12:58:35;;;;;;;3.57;3.27;;;;;;;;;;5032899;28;20447;-91
2021/10/19 13:01:04;;;;;;;4.50;2.97;;;14.80;99.90;;;;;;5039822;28;20451;-93
2021/10/19 13:03:31;;;;;;;4.20;3.37;;;;;;;;;;5037552;28;20439;-95
2021/10/19 13:06:01;;;;;;;3.80;3.00;;;15.90;99.90;;;;;;5037489;28;20444;-95
2021/10/19 13:08:28;;;;;;;3.93;3.00;;;;;;;;;;5037124;28;20485;-95
2021/10/19 13:10:55;;;;;;;3.67;3.10;;;;;;;;;;5038720;28;20444;-96
2021/10/19 13:13:23;;;;;;;4.50;3.37;;;;;;;;;;5031227;28;20927;-96
2021/10/19 13:15:50;;;;;;;3.43;2.80;;;;;;;;;;5036279;28;20498;-94
2021/10/19 13:18:25;;;;;;;8.50;3.10;;;;;;;;;;5038149;28;20443;-95
2021/10/19 13:20:52;;;;;;;3.40;3.10;;;;;;;;;;5036567;28;20440;-96
2021/10/19 13:23:21;;;;;;;3.40;3.10;;;;;;;;;;5032774;28;20439;-94
2021/10/19 13:25:48;;;;;;;2.93;2.73;;;;;;;;;;5040681;28;20435;-92
2021/10/19 13:28:17;;;;;;;5.73;3.30;;;;;;;;;;5052743;28;20454;-96
2021/10/19 13:30:44;;;;;;;4.30;2.80;;;;;;;;;;5031897;28;20432;-95
2021/10/19 13:33:11;;;;;;;3.30;3.00;;;;;;;;;;5036653;28;20440;-96
2021/10/19 13:35:39;;;;;;;4.17;3.77;;;;;;;;;;5036161;28;20978;-95
2021/10/19 13:38:06;;;;;;;5.00;3.57;;;;;;;;;;5035731;28;20506;-94
2021/10/19 13:40:34;;;;;;;4.70;3.03;;;16.00;99.90;;;;;;5032947;28;20451;-95
2021/10/19 13:43:02;;;;;;;4.10;3.70;;;;;;;;;;5015410;28;20464;-95
2021/10/19 13:45:30;;;;;;;4.93;3.73;;;15.80;99.90;;;;;;5025348;28;20518;-96
2021/10/19 13:47:57;;;;;;;6.37;3.57;;;;;;;;;;5027905;28;20452;-95
2021/10/19 13:50:24;;;;;;;5.00;3.30;;;;;;;;;;5023331;28;20445;-95
2021/10/19 13:52:51;;;;;;;3.53;3.00;;;;;;;;;;5016892;28;20463;-94
2021/10/19 13:55:19;;;;;;;3.47;3.17;;;;;;;;;;5019619;28;20468;-92
2021/10/19 13:57:47;;;;;;;3.80;3.50;;;;;;;;;;5031631;28;20445;-88
2021/10/19 14:00:16;;;;;;;4.20;3.27;;;;;;;;;;5032412;28;20436;-96
2021/10/19 14:02:43;;;;;;;4.10;3.70;;;;;;;;;;5030713;28;20451;-87
2021/10/19 14:05:12;;;;;;;3.87;3.47;;;;;;;;;;5027541;28;20540;-94
2021/10/19 14:07:39;;;;;;;4.17;3.63;;;;;;;;;;5018716;28;20448;-93